aviador You're here:

LFMY Decoded Metar

SALON in FRANCE
Report Time2017-11-22 21:30:00
UTC Time2017-11-22 21:46:50
Flight Rules vfr VFR
Wind110° at 05 kt
W.Decomp.*RWY 16: 3.1 kt HW 3.9 kt LCW
W.Rank110° ranks 20
Current wind is below 110° avg. (7.8)
Visibility9999 m
Phenomena:N/A
Clouds:Few 045 Hf
Overcast 054 Hf
Expected CloudBase > 2,000 ft AGL from Temp-Dew spread
Ceiling5,400 ft
Temp13°C (ISA -2)
Dew Point08°C (72% RH)
AAT10.8°C
QNH1018 hPa
Density Alt-16 ft
Elevation197 ft
Report Wrong Elevation
Raw Report
METAR LFMY 222130Z AUTO 11005KT 9999 FEW045 OVC054 13/08 Q1018=

Extra information for LFMY:More info

Metar Taf Metar & Taf Last 4 Metars F.Rules Stats Wind Profile Meteogram Temp Stats Airport Information Weather charts Add Link Nearby VenuesMetar ALERT Operation Metar Decoded Social comments